sensor_id;sensor_type;location;lat;lon;timestamp;temperature;humidity
55648;DHT22;45266;48.756;9.246;2023-03-14T00:00:57;10.00;99.90
55648;DHT22;45266;48.756;9.246;2023-03-14T00:01:59;10.00;99.90
55648;DHT22;45266;48.756;9.246;2023-03-14T00:03:00;10.00;99.90
55648;DHT22;45266;48.756;9.246;2023-03-14T00:04:04;10.00;99.90
55648;DHT22;45266;48.756;9.246;2023-03-14T00:05:07;10.00;99.90
55648;DHT22;45266;48.756;9.246;2023-03-14T00:06:10;10.00;99.90
55648;DHT22;45266;48.756;9.246;2023-03-14T00:07:12;10.00;99.90
55648;DHT22;45266;48.756;9.246;2023-03-14T00:08:15;10.00;99.90
55648;DHT22;45266;48.756;9.246;2023-03-14T00:09:17;10.00;99.90
55648;DHT22;45266;48.756;9.246;2023-03-14T00:10:19;10.00;99.90
55648;DHT22;45266;48.756;9.246;2023-03-14T00:11:21;10.00;99.90
55648;DHT22;45266;48.756;9.246;2023-03-14T00:12:23;10.00;99.90
55648;DHT22;45266;48.756;9.246;2023-03-14T00:13:25;10.00;99.90
55648;DHT22;45266;48.756;9.246;2023-03-14T00:14:27;10.00;99.90
55648;DHT22;45266;48.756;9.246;2023-03-14T00:15:28;10.00;99.90
55648;DHT22;45266;48.756;9.246;2023-03-14T00:16:30;9.90;99.90
55648;DHT22;45266;48.756;9.246;2023-03-14T00:17:32;10.00;99.90
55648;DHT22;45266;48.756;9.246;2023-03-14T00:18:35;10.00;99.90
55648;DHT22;45266;48.756;9.246;2023-03-14T00:19:37;10.00;99.90
55648;DHT22;45266;48.756;9.246;2023-03-14T00:20:38;10.00;99.90
55648;DHT22;45266;48.756;9.246;2023-03-14T00:21:40;10.00;99.90
55648;DHT22;45266;48.756;9.246;2023-03-14T00:22:42;10.00;99.90
55648;DHT22;45266;48.756;9.246;2023-03-14T00:23:44;10.00;99.90
55648;DHT22;45266;48.756;9.246;2023-03-14T00:24:46;10.00;99.90
55648;DHT22;45266;48.756;9.246;2023-03-14T00:25:48;10.00;99.90
55648;DHT22;45266;48.756;9.246;2023-03-14T00:26:49;10.10;99.90
55648;DHT22;45266;48.756;9.246;2023-03-14T00:27:52;10.00;99.90
55648;DHT22;45266;48.756;9.246;2023-03-14T00:28:54;10.10;99.90
55648;DHT22;45266;48.756;9.246;2023-03-14T00:29:56;10.10;99.90
55648;DHT22;45266;48.756;9.246;2023-03-14T00:30:58;10.10;99.90
55648;DHT22;45266;48.756;9.246;2023-03-14T00:32:00;10.00;99.90
55648;DHT22;45266;48.756;9.246;2023-03-14T00:33:02;10.10;99.90
55648;DHT22;45266;48.756;9.246;2023-03-14T00:34:03;10.00;99.90
55648;DHT22;45266;48.756;9.246;2023-03-14T00:35:05;10.00;99.90
55648;DHT22;45266;48.756;9.246;2023-03-14T00:36:10;9.90;99.90
55648;DHT22;45266;48.756;9.246;2023-03-14T00:37:13;10.00;99.90
55648;DHT22;45266;48.756;9.246;2023-03-14T00:38:15;10.00;99.90
55648;DHT22;45266;48.756;9.246;2023-03-14T00:39:16;10.00;99.90
55648;DHT22;45266;48.756;9.246;2023-03-14T00:40:18;10.00;99.90
55648;DHT22;45266;48.756;9.246;2023-03-14T00:41:22;10.00;99.90
55648;DHT22;45266;48.756;9.246;2023-03-14T00:42:24;9.90;99.90
55648;DHT22;45266;48.756;9.246;2023-03-14T00:43:26;10.00;99.90
55648;DHT22;45266;48.756;9.246;2023-03-14T00:44:28;10.00;99.90
55648;DHT22;45266;48.756;9.246;2023-03-14T00:45:29;10.00;99.90
55648;DHT22;45266;48.756;9.246;2023-03-14T00:46:31;10.00;99.90
55648;DHT22;45266;48.756;9.246;2023-03-14T00:47:33;10.00;99.90
55648;DHT22;45266;48.756;9.246;2023-03-14T00:48:35;9.90;99.90
55648;DHT22;45266;48.756;9.246;2023-03-14T00:49:37;9.90;99.90
55648;DHT22;45266;48.756;9.246;2023-03-14T00:50:39;9.90;99.90
55648;DHT22;45266;48.756;9.246;2023-03-14T00:51:41;9.90;99.90
55648;DHT22;45266;48.756;9.246;2023-03-14T00:52:42;9.90;99.90
55648;DHT22;45266;48.756;9.246;2023-03-14T00:53:44;9.90;99.90
55648;DHT22;45266;48.756;9.246;2023-03-14T00:54:46;9.80;99.90
55648;DHT22;45266;48.756;9.246;2023-03-14T00:55:48;9.80;99.90
55648;DHT22;45266;48.756;9.246;2023-03-14T00:56:50;9.80;99.90
55648;DHT22;45266;48.756;9.246;2023-03-14T00:57:52;9.80;99.90
55648;DHT22;45266;48.756;9.246;2023-03-14T00:58:57;9.70;99.90
55648;DHT22;45266;48.756;9.246;2023-03-14T00:59:59;9.70;99.90
55648;DHT22;45266;48.756;9.246;2023-03-14T01:01:09;9.70;99.90
55648;DHT22;45266;48.756;9.246;2023-03-14T01:02:11;9.60;99.90
55648;DHT22;45266;48.756;9.246;2023-03-14T01:03:13;9.60;99.90
55648;DHT22;45266;48.756;9.246;2023-03-14T01:04:15;9.60;99.90
55648;DHT22;45266;48.756;9.246;2023-03-14T01:05:17;9.60;99.90
55648;DHT22;45266;48.756;9.246;2023-03-14T01:06:22;9.60;99.90
55648;DHT22;45266;48.756;9.246;2023-03-14T01:07:24;9.60;99.90
55648;DHT22;45266;48.756;9.246;2023-03-14T01:08:26;9.50;99.90
55648;DHT22;45266;48.756;9.246;2023-03-14T01:09:28;9.50;99.90
55648;DHT22;45266;48.756;9.246;2023-03-14T01:10:29;9.50;99.90
55648;DHT22;45266;48.756;9.246;2023-03-14T01:11:33;9.50;99.90
55648;DHT22;45266;48.756;9.246;2023-03-14T01:12:36;9.40;99.90
55648;DHT22;45266;48.756;9.246;2023-03-14T01:13:38;9.40;99.90
55648;DHT22;45266;48.756;9.246;2023-03-14T01:14:39;9.40;99.90
55648;DHT22;45266;48.756;9.246;2023-03-14T01:15:41;9.40;99.90
55648;DHT22;45266;48.756;9.246;2023-03-14T01:16:43;9.40;99.90
55648;DHT22;45266;48.756;9.246;2023-03-14T01:17:45;9.40;99.90
55648;DHT22;45266;48.756;9.246;2023-03-14T01:18:47;9.40;99.90
55648;DHT22;45266;48.756;9.246;2023-03-14T01:19:49;9.40;99.90
55648;DHT22;45266;48.756;9.246;2023-03-14T01:20:51;9.40;99.90
55648;DHT22;45266;48.756;9.246;2023-03-14T01:21:53;9.40;99.90
55648;DHT22;45266;48.756;9.246;2023-03-14T01:22:55;9.40;99.90
55648;DHT22;45266;48.756;9.246;2023-03-14T01:23:58;9.40;99.90
55648;DHT22;45266;48.756;9.246;2023-03-14T01:25:01;9.40;99.90
55648;DHT22;45266;48.756;9.246;2023-03-14T01:26:03;9.40;99.90
55648;DHT22;45266;48.756;9.246;2023-03-14T01:27:05;9.40;99.90
55648;DHT22;45266;48.756;9.246;2023-03-14T01:28:07;9.40;99.90
55648;DHT22;45266;48.756;9.246;2023-03-14T01:29:09;9.40;99.90
55648;DHT22;45266;48.756;9.246;2023-03-14T01:30:12;9.40;99.90
55648;DHT22;45266;48.756;9.246;2023-03-14T01:31:14;9.40;99.90
55648;DHT22;45266;48.756;9.246;2023-03-14T01:32:16;9.30;99.90
55648;DHT22;45266;48.756;9.246;2023-03-14T01:33:18;9.30;99.90
55648;DHT22;45266;48.756;9.246;2023-03-14T01:34:20;9.30;99.90
55648;DHT22;45266;48.756;9.246;2023-03-14T01:35:21;9.30;99.90
55648;DHT22;45266;48.756;9.246;2023-03-14T01:36:23;9.30;99.90
55648;DHT22;45266;48.756;9.246;2023-03-14T01:37:25;9.30;99.90
55648;DHT22;45266;48.756;9.246;2023-03-14T01:38:31;9.30;99.90
55648;DHT22;45266;48.756;9.246;2023-03-14T01:39:33;9.20;99.90
55648;DHT22;45266;48.756;9.246;2023-03-14T01:40:42;9.20;99.90
55648;DHT22;45266;48.756;9.246;2023-03-14T01:41:44;9.20;99.90
55648;DHT22;45266;48.756;9.246;2023-03-14T01:42:54;9.20;99.90
55648;DHT22;45266;48.756;9.246;2023-03-14T01:43:57;9.20;99.90
55648;DHT22;45266;48.756;9.246;2023-03-14T01:45:02;9.20;99.90
55648;DHT22;45266;48.756;9.246;2023-03-14T01:47:06;9.10;99.90
55648;DHT22;45266;48.756;9.246;2023-03-14T01:48:08;9.10;99.90
55648;DHT22;45266;48.756;9.246;2023-03-14T01:50:24;9.10;99.90
55648;DHT22;45266;48.756;9.246;2023-03-14T01:51:30;9.10;99.90
55648;DHT22;45266;48.756;9.246;2023-03-14T01:53:42;9.10;99.90
55648;DHT22;45266;48.756;9.246;2023-03-14T01:54:47;9.10;99.90
55648;DHT22;45266;48.756;9.246;2023-03-14T01:55:50;9.10;99.90
55648;DHT22;45266;48.756;9.246;2023-03-14T01:57:04;9.10;99.90
55648;DHT22;45266;48.756;9.246;2023-03-14T01:58:08;9.10;99.90
55648;DHT22;45266;48.756;9.246;2023-03-14T01:59:11;9.00;99.90
55648;DHT22;45266;48.756;9.246;2023-03-14T02:00:19;9.10;99.90
55648;DHT22;45266;48.756;9.246;2023-03-14T02:01:24;9.00;99.90
55648;DHT22;45266;48.756;9.246;2023-03-14T02:02:28;9.10;99.90
55648;DHT22;45266;48.756;9.246;2023-03-14T02:03:35;9.10;99.90
55648;DHT22;45266;48.756;9.246;2023-03-14T02:04:39;9.10;99.90
55648;DHT22;45266;48.756;9.246;2023-03-14T02:05:42;9.10;99.90
55648;DHT22;45266;48.756;9.246;2023-03-14T02:07:52;9.10;99.90
55648;DHT22;45266;48.756;9.246;2023-03-14T02:08:55;9.10;99.90
55648;DHT22;45266;48.756;9.246;2023-03-14T02:09:59;9.10;99.90
55648;DHT22;45266;48.756;9.246;2023-03-14T02:11:01;9.10;99.90
55648;DHT22;45266;48.756;9.246;2023-03-14T02:12:03;9.10;99.90
55648;DHT22;45266;48.756;9.246;2023-03-14T02:13:05;9.10;99.90
55648;DHT22;45266;48.756;9.246;2023-03-14T02:14:15;9.10;99.90
55648;DHT22;45266;48.756;9.246;2023-03-14T02:15:20;9.10;99.90
55648;DHT22;45266;48.756;9.246;2023-03-14T02:16:22;9.10;99.90
55648;DHT22;45266;48.756;9.246;2023-03-14T02:17:24;9.10;99.90
55648;DHT22;45266;48.756;9.246;2023-03-14T02:18:26;9.10;99.90
55648;DHT22;45266;48.756;9.246;2023-03-14T02:19:43;9.10;99.90
55648;DHT22;45266;48.756;9.246;2023-03-14T02:21:05;9.10;99.90
55648;DHT22;45266;48.756;9.246;2023-03-14T02:22:14;9.00;99.90
55648;DHT22;45266;48.756;9.246;2023-03-14T02:23:25;9.00;99.90
55648;DHT22;45266;48.756;9.246;2023-03-14T02:26:16;9.00;99.90
55648;DHT22;45266;48.756;9.246;2023-03-14T02:27:21;8.90;99.90
55648;DHT22;45266;48.756;9.246;2023-03-14T02:28:23;8.90;99.90
55648;DHT22;45266;48.756;9.246;2023-03-14T02:29:25;9.00;99.90
55648;DHT22;45266;48.756;9.246;2023-03-14T02:30:29;8.90;99.90
55648;DHT22;45266;48.756;9.246;2023-03-14T02:31:32;8.90;99.90
55648;DHT22;45266;48.756;9.246;2023-03-14T02:32:36;8.90;99.90
55648;DHT22;45266;48.756;9.246;2023-03-14T02:33:40;8.80;99.90
55648;DHT22;45266;48.756;9.246;2023-03-14T02:34:43;8.90;99.90
55648;DHT22;45266;48.756;9.246;2023-03-14T02:35:59;8.90;99.90
55648;DHT22;45266;48.756;9.246;2023-03-14T02:37:02;8.90;99.90
55648;DHT22;45266;48.756;9.246;2023-03-14T02:39:39;8.90;99.90
55648;DHT22;45266;48.756;9.246;2023-03-14T02:40:44;9.00;99.90
55648;DHT22;45266;48.756;9.246;2023-03-14T02:41:46;9.00;99.90
55648;DHT22;45266;48.756;9.246;2023-03-14T02:42:50;9.10;99.90
55648;DHT22;45266;48.756;9.246;2023-03-14T02:43:52;9.10;99.90
55648;DHT22;45266;48.756;9.246;2023-03-14T02:44:59;9.10;99.90
55648;DHT22;45266;48.756;9.246;2023-03-14T02:46:04;9.10;99.90
55648;DHT22;45266;48.756;9.246;2023-03-14T02:47:07;9.20;99.90
55648;DHT22;45266;48.756;9.246;2023-03-14T02:48:14;9.20;99.90
55648;DHT22;45266;48.756;9.246;2023-03-14T02:49:16;9.20;99.90
55648;DHT22;45266;48.756;9.246;2023-03-14T02:50:25;9.20;99.90
55648;DHT22;45266;48.756;9.246;2023-03-14T02:51:28;9.30;99.90
55648;DHT22;45266;48.756;9.246;2023-03-14T02:52:30;9.30;99.90
55648;DHT22;45266;48.756;9.246;2023-03-14T02:53:34;9.40;99.90
55648;DHT22;45266;48.756;9.246;2023-03-14T02:54:37;9.30;99.90
55648;DHT22;45266;48.756;9.246;2023-03-14T02:55:38;9.30;99.90
55648;DHT22;45266;48.756;9.246;2023-03-14T02:56:40;9.30;99.90
55648;DHT22;45266;48.756;9.246;2023-03-14T02:57:42;9.40;99.90
55648;DHT22;45266;48.756;9.246;2023-03-14T02:58:43;9.30;99.90
55648;DHT22;45266;48.756;9.246;2023-03-14T02:59:46;9.30;99.90
55648;DHT22;45266;48.756;9.246;2023-03-14T03:00:48;9.30;99.90
55648;DHT22;45266;48.756;9.246;2023-03-14T03:01:49;9.30;99.90
55648;DHT22;45266;48.756;9.246;2023-03-14T03:02:52;9.30;99.90
55648;DHT22;45266;48.756;9.246;2023-03-14T03:03:55;9.30;99.90
55648;DHT22;45266;48.756;9.246;2023-03-14T03:04:56;9.30;99.90
55648;DHT22;45266;48.756;9.246;2023-03-14T03:05:58;9.30;99.90
55648;DHT22;45266;48.756;9.246;2023-03-14T03:07:00;9.30;99.90
55648;DHT22;45266;48.756;9.246;2023-03-14T03:08:03;9.20;99.90
55648;DHT22;45266;48.756;9.246;2023-03-14T03:09:05;9.10;99.90
55648;DHT22;45266;48.756;9.246;2023-03-14T03:10:07;9.20;99.90
55648;DHT22;45266;48.756;9.246;2023-03-14T03:11:09;9.20;99.90
55648;DHT22;45266;48.756;9.246;2023-03-14T03:12:11;9.20;99.90
55648;DHT22;45266;48.756;9.246;2023-03-14T03:13:13;9.20;99.90
55648;DHT22;45266;48.756;9.246;2023-03-14T03:14:15;9.20;99.90
55648;DHT22;45266;48.756;9.246;2023-03-14T03:15:17;9.20;99.90
55648;DHT22;45266;48.756;9.246;2023-03-14T03:16:19;9.20;99.90
55648;DHT22;45266;48.756;9.246;2023-03-14T03:17:21;9.10;99.90
55648;DHT22;45266;48.756;9.246;2023-03-14T03:18:22;9.10;99.90
55648;DHT22;45266;48.756;9.246;2023-03-14T03:19:24;9.10;99.90
55648;DHT22;45266;48.756;9.246;2023-03-14T03:20:26;9.10;99.90
55648;DHT22;45266;48.756;9.246;2023-03-14T03:21:28;9.10;99.90
55648;DHT22;45266;48.756;9.246;2023-03-14T03:22:29;9.10;99.90
55648;DHT22;45266;48.756;9.246;2023-03-14T03:23:31;9.10;99.90
55648;DHT22;45266;48.756;9.246;2023-03-14T03:24:33;9.20;99.90
55648;DHT22;45266;48.756;9.246;2023-03-14T03:25:35;9.10;99.90
55648;DHT22;45266;48.756;9.246;2023-03-14T03:26:37;9.10;99.90
55648;DHT22;45266;48.756;9.246;2023-03-14T03:27:39;9.10;99.90
55648;DHT22;45266;48.756;9.246;2023-03-14T03:28:40;9.10;99.90
55648;DHT22;45266;48.756;9.246;2023-03-14T03:29:42;9.20;99.90
55648;DHT22;45266;48.756;9.246;2023-03-14T03:30:44;9.10;99.90
55648;DHT22;45266;48.756;9.246;2023-03-14T03:31:46;9.10;99.90
55648;DHT22;45266;48.756;9.246;2023-03-14T03:32:48;9.10;99.90
55648;DHT22;45266;48.756;9.246;2023-03-14T03:33:50;9.10;99.90
55648;DHT22;45266;48.756;9.246;2023-03-14T03:34:52;9.20;99.90
55648;DHT22;45266;48.756;9.246;2023-03-14T03:35:54;9.20;99.90
55648;DHT22;45266;48.756;9.246;2023-03-14T03:36:56;9.20;99.90
55648;DHT22;45266;48.756;9.246;2023-03-14T03:37:58;9.20;99.90
55648;DHT22;45266;48.756;9.246;2023-03-14T03:39:00;9.20;99.90
55648;DHT22;45266;48.756;9.246;2023-03-14T03:40:02;9.30;99.90
55648;DHT22;45266;48.756;9.246;2023-03-14T03:41:07;9.20;99.90
55648;DHT22;45266;48.756;9.246;2023-03-14T03:42:10;9.20;99.90
55648;DHT22;45266;48.756;9.246;2023-03-14T03:43:11;9.30;99.90
55648;DHT22;45266;48.756;9.246;2023-03-14T03:44:13;9.20;99.90
55648;DHT22;45266;48.756;9.246;2023-03-14T03:45:15;9.10;99.90
55648;DHT22;45266;48.756;9.246;2023-03-14T03:46:17;9.30;99.90
55648;DHT22;45266;48.756;9.246;2023-03-14T03:47:19;9.20;99.90
55648;DHT22;45266;48.756;9.246;2023-03-14T03:48:20;9.20;99.90
55648;DHT22;45266;48.756;9.246;2023-03-14T03:49:22;9.20;99.90
55648;DHT22;45266;48.756;9.246;2023-03-14T03:50:24;9.20;99.90
55648;DHT22;45266;48.756;9.246;2023-03-14T03:51:26;9.20;99.90
55648;DHT22;45266;48.756;9.246;2023-03-14T03:52:28;9.20;99.90
55648;DHT22;45266;48.756;9.246;2023-03-14T03:53:30;9.20;99.90
55648;DHT22;45266;48.756;9.246;2023-03-14T03:54:35;9.20;99.90
55648;DHT22;45266;48.756;9.246;2023-03-14T03:55:36;9.20;99.90
55648;DHT22;45266;48.756;9.246;2023-03-14T03:56:38;9.20;99.90
55648;DHT22;45266;48.756;9.246;2023-03-14T03:57:40;9.10;99.90
55648;DHT22;45266;48.756;9.246;2023-03-14T03:58:42;9.10;99.90
55648;DHT22;45266;48.756;9.246;2023-03-14T03:59:43;9.10;99.90
55648;DHT22;45266;48.756;9.246;2023-03-14T04:00:46;9.10;99.90
55648;DHT22;45266;48.756;9.246;2023-03-14T04:01:47;9.10;99.90
55648;DHT22;45266;48.756;9.246;2023-03-14T04:02:49;9.00;99.90
55648;DHT22;45266;48.756;9.246;2023-03-14T04:03:51;9.10;99.90
55648;DHT22;45266;48.756;9.246;2023-03-14T04:04:53;9.10;99.90
55648;DHT22;45266;48.756;9.246;2023-03-14T04:06:00;9.10;99.90
55648;DHT22;45266;48.756;9.246;2023-03-14T04:07:03;9.00;99.90
55648;DHT22;45266;48.756;9.246;2023-03-14T04:08:05;9.00;99.90
55648;DHT22;45266;48.756;9.246;2023-03-14T04:09:08;9.00;99.90
55648;DHT22;45266;48.756;9.246;2023-03-14T04:10:10;9.00;99.90
55648;DHT22;45266;48.756;9.246;2023-03-14T04:11:12;9.00;99.90
55648;DHT22;45266;48.756;9.246;2023-03-14T04:12:13;9.00;99.90
55648;DHT22;45266;48.756;9.246;2023-03-14T04:13:15;9.00;99.90
55648;DHT22;45266;48.756;9.246;2023-03-14T04:14:17;9.00;99.90
55648;DHT22;45266;48.756;9.246;2023-03-14T04:15:19;9.00;99.90
55648;DHT22;45266;48.756;9.246;2023-03-14T04:16:23;9.00;99.90
55648;DHT22;45266;48.756;9.246;2023-03-14T04:17:25;9.00;99.90
55648;DHT22;45266;48.756;9.246;2023-03-14T04:18:27;9.00;99.90
55648;DHT22;45266;48.756;9.246;2023-03-14T04:19:30;8.90;99.90
55648;DHT22;45266;48.756;9.246;2023-03-14T04:20:34;8.90;99.90
55648;DHT22;45266;48.756;9.246;2023-03-14T04:21:36;8.80;99.90
55648;DHT22;45266;48.756;9.246;2023-03-14T04:22:39;8.80;99.90
55648;DHT22;45266;48.756;9.246;2023-03-14T04:23:42;8.80;99.90
55648;DHT22;45266;48.756;9.246;2023-03-14T04:24:44;8.80;99.90
55648;DHT22;45266;48.756;9.246;2023-03-14T04:25:46;8.70;99.90
55648;DHT22;45266;48.756;9.246;2023-03-14T04:26:48;8.70;99.90
55648;DHT22;45266;48.756;9.246;2023-03-14T04:27:49;8.60;99.90
55648;DHT22;45266;48.756;9.246;2023-03-14T04:28:53;8.60;99.90
55648;DHT22;45266;48.756;9.246;2023-03-14T04:29:55;8.60;99.90
55648;DHT22;45266;48.756;9.246;2023-03-14T04:30:57;8.70;99.90
55648;DHT22;45266;48.756;9.246;2023-03-14T04:31:59;8.60;99.90
55648;DHT22;45266;48.756;9.246;2023-03-14T04:33:01;8.60;99.90
55648;DHT22;45266;48.756;9.246;2023-03-14T04:34:03;8.60;99.90
55648;DHT22;45266;48.756;9.246;2023-03-14T04:35:05;8.60;99.90
55648;DHT22;45266;48.756;9.246;2023-03-14T04:36:07;8.60;99.90
55648;DHT22;45266;48.756;9.246;2023-03-14T04:37:09;8.60;99.90
55648;DHT22;45266;48.756;9.246;2023-03-14T04:38:12;8.60;99.90
55648;DHT22;45266;48.756;9.246;2023-03-14T04:39:14;8.60;99.90
55648;DHT22;45266;48.756;9.246;2023-03-14T04:40:16;8.60;99.90
55648;DHT22;45266;48.756;9.246;2023-03-14T04:41:19;8.50;99.90
55648;DHT22;45266;48.756;9.246;2023-03-14T04:42:21;8.50;99.90
55648;DHT22;45266;48.756;9.246;2023-03-14T04:43:23;8.50;99.90
55648;DHT22;45266;48.756;9.246;2023-03-14T04:44:24;8.50;99.90
55648;DHT22;45266;48.756;9.246;2023-03-14T04:45:26;8.50;99.90
55648;DHT22;45266;48.756;9.246;2023-03-14T04:46:28;8.50;99.90
55648;DHT22;45266;48.756;9.246;2023-03-14T04:47:30;8.40;99.90
55648;DHT22;45266;48.756;9.246;2023-03-14T04:48:32;8.40;99.90
55648;DHT22;45266;48.756;9.246;2023-03-14T04:49:33;8.40;99.90
55648;DHT22;45266;48.756;9.246;2023-03-14T04:50:35;8.50;99.90
55648;DHT22;45266;48.756;9.246;2023-03-14T04:51:37;8.40;99.90
55648;DHT22;45266;48.756;9.246;2023-03-14T04:52:38;8.40;99.90
55648;DHT22;45266;48.756;9.246;2023-03-14T04:53:40;8.40;99.90
55648;DHT22;45266;48.756;9.246;2023-03-14T04:54:42;8.40;99.90
55648;DHT22;45266;48.756;9.246;2023-03-14T04:55:52;8.40;99.90
55648;DHT22;45266;48.756;9.246;2023-03-14T04:56:53;8.40;99.90
55648;DHT22;45266;48.756;9.246;2023-03-14T04:57:55;8.40;99.90
55648;DHT22;45266;48.756;9.246;2023-03-14T04:58:57;8.30;99.90
55648;DHT22;45266;48.756;9.246;2023-03-14T04:59:59;8.30;99.90
55648;DHT22;45266;48.756;9.246;2023-03-14T05:01:04;8.30;99.90
55648;DHT22;45266;48.756;9.246;2023-03-14T05:02:06;8.20;99.90
55648;DHT22;45266;48.756;9.246;2023-03-14T05:03:08;8.20;99.90
55648;DHT22;45266;48.756;9.246;2023-03-14T05:04:10;8.20;99.90
55648;DHT22;45266;48.756;9.246;2023-03-14T05:05:12;8.20;99.90
55648;DHT22;45266;48.756;9.246;2023-03-14T05:06:13;8.20;99.90
55648;DHT22;45266;48.756;9.246;2023-03-14T05:07:15;8.20;99.90
55648;DHT22;45266;48.756;9.246;2023-03-14T05:08:17;8.20;99.90
55648;DHT22;45266;48.756;9.246;2023-03-14T05:09:19;8.20;99.90
55648;DHT22;45266;48.756;9.246;2023-03-14T05:10:21;8.20;99.90
55648;DHT22;45266;48.756;9.246;2023-03-14T05:11:23;8.00;99.90
55648;DHT22;45266;48.756;9.246;2023-03-14T05:12:24;8.10;99.90
55648;DHT22;45266;48.756;9.246;2023-03-14T05:13:26;8.10;99.90
55648;DHT22;45266;48.756;9.246;2023-03-14T05:14:28;8.10;99.90
55648;DHT22;45266;48.756;9.246;2023-03-14T05:15:30;8.10;99.90
55648;DHT22;45266;48.756;9.246;2023-03-14T05:16:32;8.00;99.90
55648;DHT22;45266;48.756;9.246;2023-03-14T05:17:35;8.00;99.90
55648;DHT22;45266;48.756;9.246;2023-03-14T05:18:37;7.90;99.90
55648;DHT22;45266;48.756;9.246;2023-03-14T05:19:38;7.90;99.90
55648;DHT22;45266;48.756;9.246;2023-03-14T05:20:40;7.90;99.90
55648;DHT22;45266;48.756;9.246;2023-03-14T05:21:43;7.90;99.90
55648;DHT22;45266;48.756;9.246;2023-03-14T05:22:45;7.80;99.90
55648;DHT22;45266;48.756;9.246;2023-03-14T05:23:46;7.80;99.90
55648;DHT22;45266;48.756;9.246;2023-03-14T05:24:48;7.80;99.90
55648;DHT22;45266;48.756;9.246;2023-03-14T05:25:50;7.80;99.90
55648;DHT22;45266;48.756;9.246;2023-03-14T05:26:52;7.80;99.90
55648;DHT22;45266;48.756;9.246;2023-03-14T05:27:55;7.80;99.90
55648;DHT22;45266;48.756;9.246;2023-03-14T05:28:57;7.80;99.90
55648;DHT22;45266;48.756;9.246;2023-03-14T05:29:58;7.70;99.90
55648;DHT22;45266;48.756;9.246;2023-03-14T05:31:00;7.70;99.90
55648;DHT22;45266;48.756;9.246;2023-03-14T05:32:02;7.70;99.90
55648;DHT22;45266;48.756;9.246;2023-03-14T05:33:04;7.70;99.90
55648;DHT22;45266;48.756;9.246;2023-03-14T05:34:05;7.70;99.90
55648;DHT22;45266;48.756;9.246;2023-03-14T05:35:08;7.70;99.90
55648;DHT22;45266;48.756;9.246;2023-03-14T05:36:10;7.60;99.90
55648;DHT22;45266;48.756;9.246;2023-03-14T05:37:11;7.60;99.90
55648;DHT22;45266;48.756;9.246;2023-03-14T05:38:13;7.60;99.90
55648;DHT22;45266;48.756;9.246;2023-03-14T05:39:15;7.60;99.90
55648;DHT22;45266;48.756;9.246;2023-03-14T05:40:17;7.60;99.90
55648;DHT22;45266;48.756;9.246;2023-03-14T05:41:19;7.60;99.90
55648;DHT22;45266;48.756;9.246;2023-03-14T05:42:20;7.60;99.90
55648;DHT22;45266;48.756;9.246;2023-03-14T05:43:22;7.60;99.90
55648;DHT22;45266;48.756;9.246;2023-03-14T05:44:24;7.60;99.90
55648;DHT22;45266;48.756;9.246;2023-03-14T05:45:26;7.60;99.90
55648;DHT22;45266;48.756;9.246;2023-03-14T05:46:28;7.60;99.90
55648;DHT22;45266;48.756;9.246;2023-03-14T05:47:32;7.70;99.90
55648;DHT22;45266;48.756;9.246;2023-03-14T05:48:34;7.70;99.90
55648;DHT22;45266;48.756;9.246;2023-03-14T05:49:36;7.70;99.90
55648;DHT22;45266;48.756;9.246;2023-03-14T05:50:38;7.70;99.90
55648;DHT22;45266;48.756;9.246;2023-03-14T05:51:40;7.70;99.90
55648;DHT22;45266;48.756;9.246;2023-03-14T05:52:41;7.70;99.90
55648;DHT22;45266;48.756;9.246;2023-03-14T05:53:43;7.70;99.90
55648;DHT22;45266;48.756;9.246;2023-03-14T05:54:45;7.70;99.90
55648;DHT22;45266;48.756;9.246;2023-03-14T05:55:46;7.70;99.90
55648;DHT22;45266;48.756;9.246;2023-03-14T05:56:48;7.70;99.90
55648;DHT22;45266;48.756;9.246;2023-03-14T05:57:50;7.70;99.90
55648;DHT22;45266;48.756;9.246;2023-03-14T05:58:52;7.70;99.90
55648;DHT22;45266;48.756;9.246;2023-03-14T05:59:53;7.70;99.90
55648;DHT22;45266;48.756;9.246;2023-03-14T06:00:55;7.70;99.90
55648;DHT22;45266;48.756;9.246;2023-03-14T06:01:58;7.70;99.90
55648;DHT22;45266;48.756;9.246;2023-03-14T06:02:59;7.70;99.90
55648;DHT22;45266;48.756;9.246;2023-03-14T06:04:01;7.70;99.90
55648;DHT22;45266;48.756;9.246;2023-03-14T06:05:04;7.70;99.90
55648;DHT22;45266;48.756;9.246;2023-03-14T06:06:06;7.70;99.90
55648;DHT22;45266;48.756;9.246;2023-03-14T06:07:08;7.60;99.90
55648;DHT22;45266;48.756;9.246;2023-03-14T06:08:10;7.60;99.90
55648;DHT22;45266;48.756;9.246;2023-03-14T06:09:12;7.60;99.90
55648;DHT22;45266;48.756;9.246;2023-03-14T06:10:14;7.60;99.90
55648;DHT22;45266;48.756;9.246;2023-03-14T06:11:16;7.60;99.90
55648;DHT22;45266;48.756;9.246;2023-03-14T06:12:17;7.60;99.90
55648;DHT22;45266;48.756;9.246;2023-03-14T06:13:20;7.50;99.90
55648;DHT22;45266;48.756;9.246;2023-03-14T06:14:22;7.50;99.90
55648;DHT22;45266;48.756;9.246;2023-03-14T06:15:24;7.50;99.90
55648;DHT22;45266;48.756;9.246;2023-03-14T06:16:26;7.50;99.90
55648;DHT22;45266;48.756;9.246;2023-03-14T06:17:27;7.50;99.90
55648;DHT22;45266;48.756;9.246;2023-03-14T06:18:29;7.50;99.90
55648;DHT22;45266;48.756;9.246;2023-03-14T06:19:31;7.50;99.90
55648;DHT22;45266;48.756;9.246;2023-03-14T06:20:35;7.50;99.90
55648;DHT22;45266;48.756;9.246;2023-03-14T06:21:37;7.50;99.90
55648;DHT22;45266;48.756;9.246;2023-03-14T06:22:39;7.50;99.90
55648;DHT22;45266;48.756;9.246;2023-03-14T06:23:41;7.40;99.90
55648;DHT22;45266;48.756;9.246;2023-03-14T06:24:43;7.40;99.90
55648;DHT22;45266;48.756;9.246;2023-03-14T06:25:45;7.40;99.90
55648;DHT22;45266;48.756;9.246;2023-03-14T06:26:47;7.50;99.90
55648;DHT22;45266;48.756;9.246;2023-03-14T06:27:48;7.40;99.90
55648;DHT22;45266;48.756;9.246;2023-03-14T06:28:50;7.50;99.90
55648;DHT22;45266;48.756;9.246;2023-03-14T06:29:52;7.40;99.90
55648;DHT22;45266;48.756;9.246;2023-03-14T06:30:54;7.40;99.90
55648;DHT22;45266;48.756;9.246;2023-03-14T06:31:56;7.50;99.90
55648;DHT22;45266;48.756;9.246;2023-03-14T06:32:58;7.40;99.90
55648;DHT22;45266;48.756;9.246;2023-03-14T06:34:00;7.40;99.90
55648;DHT22;45266;48.756;9.246;2023-03-14T06:35:02;7.40;99.90
55648;DHT22;45266;48.756;9.246;2023-03-14T06:36:04;7.40;99.90
55648;DHT22;45266;48.756;9.246;2023-03-14T06:37:06;7.40;99.90
55648;DHT22;45266;48.756;9.246;2023-03-14T06:38:08;7.40;99.90
55648;DHT22;45266;48.756;9.246;2023-03-14T06:39:10;7.40;99.90
55648;DHT22;45266;48.756;9.246;2023-03-14T06:40:12;7.40;99.90
55648;DHT22;45266;48.756;9.246;2023-03-14T06:41:18;7.40;99.90
55648;DHT22;45266;48.756;9.246;2023-03-14T06:42:21;7.40;99.90
55648;DHT22;45266;48.756;9.246;2023-03-14T06:43:23;7.40;99.90
55648;DHT22;45266;48.756;9.246;2023-03-14T06:44:24;7.40;99.90
55648;DHT22;45266;48.756;9.246;2023-03-14T06:45:26;7.40;99.90
55648;DHT22;45266;48.756;9.246;2023-03-14T06:46:28;7.40;99.90
55648;DHT22;45266;48.756;9.246;2023-03-14T06:47:30;7.40;99.90
55648;DHT22;45266;48.756;9.246;2023-03-14T06:48:32;7.30;99.90
55648;DHT22;45266;48.756;9.246;2023-03-14T06:49:33;7.40;99.90